Time;durP1;ratioP1;P1;durP2;ratioP2;P2;SDS_P1;SDS_P2;PMS_P1;PMS_P2;Temp;Humidity;BMP_temperature;BMP_pressure;BME280_temperature;BME280_humidity;BME280_pressure;Samples;Min_cycle;Max_cycle;Signal;HPM_P1;HPM_P2
2024/03/28 00:00:27;;;;;;;;;;;19.40;44.60;;;;;;8338091;28;19973;-56
2024/03/28 00:04:28;;;;;;;;;;;19.40;44.60;;;;;;8337999;28;20408;-56
2024/03/28 00:08:29;;;;;;;;;;;19.40;44.60;;;;;;8355691;28;19909;-56
2024/03/28 00:12:30;;;;;;;;;;;19.40;44.60;;;;;;8355335;27;19924;-56
2024/03/28 00:16:30;;;;;;;;;;;19.40;44.50;;;;;;8355686;28;19913;-56
2024/03/28 00:20:31;;;;;;;;;;;19.40;44.50;;;;;;8355138;28;19925;-56
2024/03/28 00:24:32;;;;;;;;;;;19.40;44.50;;;;;;8337484;28;20533;-60
2024/03/28 00:28:32;;;;;;;;;;;19.40;44.50;;;;;;8355332;28;20392;-60
2024/03/28 00:32:33;;;;;;;;;;;19.40;44.50;;;;;;8355446;28;19934;-59
2024/03/28 00:36:33;;;;;;;;;;;19.40;44.50;;;;;;8343370;28;19912;-58
2024/03/28 00:40:35;;;;;;;;;;;19.40;44.50;;;;;;8343135;28;19920;-59
2024/03/28 00:44:35;;;;;;;;;;;19.40;44.50;;;;;;8360447;27;20525;-56
2024/03/28 00:48:36;;;;;;;;;;;19.40;44.50;;;;;;8342837;28;20298;-58
2024/03/28 00:52:36;;;;;;;;;;;19.40;44.50;;;;;;8360476;28;19917;-57
2024/03/28 00:56:37;;;;;;;;;;;19.40;44.50;;;;;;8360465;28;19913;-57
2024/03/28 01:00:37;;;;;;;;;;;19.40;44.50;;;;;;8360425;28;20007;-58
2024/03/28 01:04:38;;;;;;;;;;;19.40;44.50;;;;;;8359995;28;19917;-59
2024/03/28 01:08:38;;;;;;;;;;;19.40;44.50;;;;;;8360001;28;19913;-58
2024/03/28 01:12:39;;;;;;;;;;;19.40;44.50;;;;;;8342063;27;20383;-59
2024/03/28 01:16:40;;;;;;;;;;;19.40;44.50;;;;;;8360055;28;19913;-59
2024/03/28 01:20:40;;;;;;;;;;;19.40;44.50;;;;;;8359619;28;19956;-57
2024/03/28 01:24:41;;;;;;;;;;;19.40;44.50;;;;;;8359727;28;19981;-59
2024/03/28 01:28:43;;;;;;;;;;;19.40;44.50;;;;;;8359536;28;19913;-58
2024/03/28 01:32:44;;;;;;;;;;;19.40;44.50;;;;;;8359574;28;19964;-58
2024/03/28 01:36:44;;;;;;;;;;;19.30;44.50;;;;;;8360183;28;19920;-58
2024/03/28 01:40:45;;;;;;;;;;;19.40;44.50;;;;;;8359225;28;19923;-58
2024/03/28 01:44:46;;;;;;;;;;;19.30;44.50;;;;;;8324226;28;20374;-58
2024/03/28 01:48:47;;;;;;;;;;;19.40;44.50;;;;;;8326708;28;19910;-58
2024/03/28 01:52:48;;;;;;;;;;;19.40;44.50;;;;;;8326220;28;19946;-58
2024/03/28 01:56:49;;;;;;;;;;;19.30;44.50;;;;;;8326234;28;19913;-59
2024/03/28 02:00:51;;;;;;;;;;;19.30;44.50;;;;;;8325830;28;19913;-58
2024/03/28 02:04:52;;;;;;;;;;;19.30;45.00;;;;;;8325727;28;19917;-58
2024/03/28 02:08:53;;;;;;;;;;;19.30;44.50;;;;;;8325950;28;19913;-58
2024/03/28 02:12:53;;;;;;;;;;;19.30;44.50;;;;;;8338172;28;19913;-58
2024/03/28 02:17:02;;;;;;;;;;;19.30;44.50;;;;;;8358374;28;20614;-58
2024/03/28 02:21:03;;;;;;;;;;;19.30;44.50;;;;;;8358477;28;20008;-57
2024/03/28 02:25:05;;;;;;;;;;;19.30;44.50;;;;;;8358591;28;19913;-57
2024/03/28 02:29:06;;;;;;;;;;;19.30;44.50;;;;;;8358637;28;19909;-58
2024/03/28 02:33:07;;;;;;;;;;;19.30;44.40;;;;;;8340422;28;20436;-58
2024/03/28 02:37:07;;;;;;;;;;;19.30;44.50;;;;;;8357723;28;19909;-58
2024/03/28 02:41:08;;;;;;;;;;;19.30;44.50;;;;;;8358034;28;19937;-58
2024/03/28 02:45:08;;;;;;;;;;;19.30;44.50;;;;;;8357617;28;19916;-57
2024/03/28 02:49:09;;;;;;;;;;;19.30;44.50;;;;;;8357354;28;19943;-58
2024/03/28 02:53:09;;;;;;;;;;;19.30;44.50;;;;;;8357605;28;19917;-59
2024/03/28 02:57:20;;;;;;;;;;;19.30;44.40;;;;;;8356247;28;20298;-58
2024/03/28 03:01:21;;;;;;;;;;;19.30;44.40;;;;;;8357312;28;19960;-59
2024/03/28 03:05:22;;;;;;;;;;;19.30;44.50;;;;;;8357231;28;20370;-58
2024/03/28 03:09:22;;;;;;;;;;;19.30;44.50;;;;;;8357209;28;19913;-58
2024/03/28 03:13:23;;;;;;;;;;;19.30;44.50;;;;;;8356662;27;19913;-57
2024/03/28 03:17:23;;;;;;;;;;;19.30;45.00;;;;;;8356672;28;19952;-59
2024/03/28 03:21:25;;;;;;;;;;;19.30;45.00;;;;;;8356848;28;20225;-58
2024/03/28 03:25:28;;;;;;;;;;;19.30;44.50;;;;;;8356452;28;20591;-58
2024/03/28 03:38:07;;;;;;;;;;;19.30;44.50;;;;;;8356343;28;19956;-58
2024/03/28 03:42:08;;;;;;;;;;;19.30;44.50;;;;;;8356013;28;19913;-58
2024/03/28 03:46:09;;;;;;;;;;;19.30;44.50;;;;;;8356072;28;20387;-58
2024/03/28 03:50:09;;;;;;;;;;;19.30;44.50;;;;;;8356125;28;20577;-59
2024/03/28 03:54:10;;;;;;;;;;;19.30;44.50;;;;;;8356366;28;19920;-56
2024/03/28 03:58:10;;;;;;;;;;;19.30;44.40;;;;;;8355854;28;20382;-57
2024/03/28 04:02:11;;;;;;;;;;;19.30;44.40;;;;;;8355888;28;19959;-56
2024/03/28 04:06:11;;;;;;;;;;;19.30;44.50;;;;;;8355384;28;20287;-56
2024/03/28 04:10:12;;;;;;;;;;;19.30;44.50;;;;;;8355161;28;19913;-56
2024/03/28 04:14:13;;;;;;;;;;;19.20;44.40;;;;;;8355342;28;19920;-56
2024/03/28 04:18:15;;;;;;;;;;;19.30;44.50;;;;;;8355261;28;20024;-56
2024/03/28 04:22:16;;;;;;;;;;;19.30;44.40;;;;;;8355325;28;19924;-56
2024/03/28 04:26:16;;;;;;;;;;;19.30;44.40;;;;;;8355234;28;19948;-54
2024/03/28 04:30:17;;;;;;;;;;;19.30;44.40;;;;;;8337542;28;20384;-56
2024/03/28 04:34:17;;;;;;;;;;;19.30;44.40;;;;;;8354916;28;19913;-57
2024/03/28 04:38:18;;;;;;;;;;;19.30;44.40;;;;;;8355046;28;20373;-55
2024/03/28 04:42:19;;;;;;;;;;;19.30;44.40;;;;;;8355072;27;20255;-56
2024/03/28 04:46:20;;;;;;;;;;;19.20;44.40;;;;;;8354743;28;19917;-55
2024/03/28 04:50:21;;;;;;;;;;;19.20;44.40;;;;;;8355104;28;19913;-56
2024/03/28 04:54:21;;;;;;;;;;;19.20;44.50;;;;;;8354905;28;19920;-55
2024/03/28 04:58:22;;;;;;;;;;;19.20;44.50;;;;;;8354644;28;19913;-56
2024/03/28 05:02:22;;;;;;;;;;;19.20;44.50;;;;;;8354247;28;19965;-56
2024/03/28 05:06:23;;;;;;;;;;;19.20;44.50;;;;;;8354773;28;20362;-58
2024/03/28 05:10:24;;;;;;;;;;;19.20;44.50;;;;;;8354205;28;19920;-58
2024/03/28 05:14:24;;;;;;;;;;;19.20;44.50;;;;;;8354179;28;19913;-58
2024/03/28 05:18:25;;;;;;;;;;;19.20;44.40;;;;;;8336359;27;19972;-58
2024/03/28 05:22:26;;;;;;;;;;;19.20;44.40;;;;;;8358801;28;19920;-58
2024/03/28 05:26:26;;;;;;;;;;;19.30;44.40;;;;;;8359900;28;20007;-58
2024/03/28 05:30:27;;;;;;;;;;;19.30;44.30;;;;;;8359617;28;19913;-56
2024/03/28 05:34:28;;;;;;;;;;;19.30;44.20;;;;;;8359553;28;19912;-58
2024/03/28 05:38:28;;;;;;;;;;;19.30;44.20;;;;;;8359500;28;19920;-59
2024/03/28 05:42:29;;;;;;;;;;;19.40;44.20;;;;;;8359272;27;20370;-58
2024/03/28 05:46:29;;;;;;;;;;;19.40;44.10;;;;;;8359802;28;19960;-59
2024/03/28 05:50:30;;;;;;;;;;;19.40;44.10;;;;;;8359055;28;19913;-58
2024/03/28 05:54:30;;;;;;;;;;;19.40;44.10;;;;;;8359067;28;20258;-59
2024/03/28 05:58:31;;;;;;;;;;;19.40;44.10;;;;;;8341238;28;19942;-58
2024/03/28 06:02:31;;;;;;;;;;;19.40;44.00;;;;;;8358950;28;19948;-57
2024/03/28 06:06:32;;;;;;;;;;;19.40;44.00;;;;;;8358701;28;19924;-58
2024/03/28 06:10:32;;;;;;;;;;;19.50;44.10;;;;;;8340767;28;19947;-59
2024/03/28 06:14:36;;;;;;;;;;;19.50;44.10;;;;;;8358503;27;19909;-58
2024/03/28 06:18:36;;;;;;;;;;;19.50;44.10;;;;;;8358308;28;20019;-59
2024/03/28 06:22:38;;;;;;;;;;;19.50;44.10;;;;;;8340478;28;19913;-58
2024/03/28 06:26:38;;;;;;;;;;;19.50;44.10;;;;;;8358302;28;19913;-58
2024/03/28 06:30:40;;;;;;;;;;;19.40;44.00;;;;;;8357838;28;19913;-58
2024/03/28 06:34:41;;;;;;;;;;;19.50;44.10;;;;;;8357960;28;19957;-59
2024/03/28 06:38:42;;;;;;;;;;;19.40;44.10;;;;;;8357933;28;19913;-58
2024/03/28 06:42:43;;;;;;;;;;;19.40;44.00;;;;;;8358727;27;19972;-58
2024/03/28 06:46:43;;;;;;;;;;;19.40;44.00;;;;;;8339976;28;19916;-57
2024/03/28 06:50:44;;;;;;;;;;;19.40;44.10;;;;;;8357514;28;19913;-57
2024/03/28 06:54:44;;;;;;;;;;;19.40;44.00;;;;;;8357641;28;19913;-57
2024/03/28 06:58:45;;;;;;;;;;;19.40;44.00;;;;;;8357687;28;19917;-56
2024/03/28 07:02:46;;;;;;;;;;;19.40;44.00;;;;;;8357370;28;20333;-58
2024/03/28 07:06:46;;;;;;;;;;;19.40;44.00;;;;;;8357305;28;19917;-58
2024/03/28 07:10:47;;;;;;;;;;;19.50;44.10;;;;;;8357074;28;19923;-59
2024/03/28 07:14:47;;;;;;;;;;;19.50;44.00;;;;;;8357061;27;19920;-58
2024/03/28 07:18:48;;;;;;;;;;;19.40;44.00;;;;;;8356840;28;19927;-58
2024/03/28 07:22:48;;;;;;;;;;;19.40;44.00;;;;;;8356572;28;20344;-59
2024/03/28 07:26:49;;;;;;;;;;;19.50;44.00;;;;;;8356726;28;19924;-56
2024/03/28 07:30:50;;;;;;;;;;;19.50;44.00;;;;;;8356545;28;19913;-55
2024/03/28 07:34:50;;;;;;;;;;;19.50;44.00;;;;;;8356492;28;19909;-56
2024/03/28 07:38:51;;;;;;;;;;;19.50;44.00;;;;;;8356302;28;19920;-56
2024/03/28 07:42:52;;;;;;;;;;;19.50;44.00;;;;;;8337465;28;19912;-55
2024/03/28 07:46:53;;;;;;;;;;;19.50;44.00;;;;;;8356127;28;20259;-56
2024/03/28 07:50:57;;;;;;;;;;;19.50;44.00;;;;;;8355953;28;19934;-56
2024/03/28 07:54:58;;;;;;;;;;;19.50;44.00;;;;;;8355867;28;20345;-55
2024/03/28 07:59:00;;;;;;;;;;;19.50;44.00;;;;;;8356015;28;19913;-56
2024/03/28 08:03:00;;;;;;;;;;;19.50;44.00;;;;;;8355742;28;19913;-55
2024/03/28 08:07:02;;;;;;;;;;;19.50;44.00;;;;;;8355675;28;19916;-56
2024/03/28 08:11:04;;;;;;;;;;;19.50;44.00;;;;;;8355514;28;19958;-56
2024/03/28 08:15:05;;;;;;;;;;;19.50;44.00;;;;;;8356121;28;19917;-56
2024/03/28 08:19:06;;;;;;;;;;;19.50;44.00;;;;;;8355210;28;20392;-56
2024/03/28 08:23:07;;;;;;;;;;;19.50;44.00;;;;;;8355219;28;20011;-57
2024/03/28 08:27:07;;;;;;;;;;;19.50;44.00;;;;;;8355329;28;19917;-56
2024/03/28 08:31:09;;;;;;;;;;;19.50;44.00;;;;;;8355165;28;19920;-56
2024/03/28 08:35:13;;;;;;;;;;;19.50;44.00;;;;;;8355086;28;19913;-57
2024/03/28 08:39:14;;;;;;;;;;;19.50;44.00;;;;;;8355250;28;20393;-58
2024/03/28 08:43:15;;;;;;;;;;;19.50;44.00;;;;;;8354664;27;19971;-58
2024/03/28 08:47:16;;;;;;;;;;;19.50;44.00;;;;;;8354671;28;19921;-57
2024/03/28 08:51:21;;;;;;;;;;;19.50;44.00;;;;;;8355470;28;20373;-58
2024/03/28 08:55:22;;;;;;;;;;;19.40;43.90;;;;;;8357611;28;19920;-57
2024/03/28 08:59:23;;;;;;;;;;;19.50;44.00;;;;;;8360223;28;19913;-59
2024/03/28 09:03:25;;;;;;;;;;;19.50;44.00;;;;;;8360418;28;19913;-58
2024/03/28 09:07:25;;;;;;;;;;;19.50;44.00;;;;;;8360244;28;19945;-59
2024/03/28 09:11:30;;;;;;;;;;;19.50;44.00;;;;;;8360081;27;20515;-58
2024/03/28 09:15:30;;;;;;;;;;;19.50;44.00;;;;;;8359960;28;19913;-58
2024/03/28 09:19:31;;;;;;;;;;;19.50;44.00;;;;;;8359860;27;20404;-58
2024/03/28 09:23:32;;;;;;;;;;;19.50;44.00;;;;;;8359748;28;19920;-59
2024/03/28 09:27:33;;;;;;;;;;;19.50;44.00;;;;;;8359803;28;19917;-59
2024/03/28 09:31:33;;;;;;;;;;;19.50;44.00;;;;;;8359770;28;19912;-59
2024/03/28 09:35:34;;;;;;;;;;;19.50;44.00;;;;;;8359478;28;19915;-58
2024/03/28 09:39:34;;;;;;;;;;;19.50;44.00;;;;;;8359771;28;19985;-58
2024/03/28 09:43:35;;;;;;;;;;;19.50;44.00;;;;;;8359171;27;20416;-58
2024/03/28 09:47:35;;;;;;;;;;;19.50;44.00;;;;;;8359590;28;19921;-58
2024/03/28 09:51:38;;;;;;;;;;;19.50;44.00;;;;;;8341407;28;19913;-58
2024/03/28 09:55:39;;;;;;;;;;;19.50;44.00;;;;;;8359121;28;19909;-59
2024/03/28 09:59:39;;;;;;;;;;;19.50;44.00;;;;;;8359301;28;20004;-58
2024/03/28 10:03:42;;;;;;;;;;;19.40;44.00;;;;;;8358985;27;19913;-57
2024/03/28 10:07:43;;;;;;;;;;;19.50;44.10;;;;;;8358240;28;19920;-58
2024/03/28 10:11:44;;;;;;;;;;;19.40;44.00;;;;;;8358715;27;19909;-59
2024/03/28 10:15:54;;;;;;;;;;;19.40;44.00;;;;;;8358443;28;19909;-58
2024/03/28 10:19:59;;;;;;;;;;;19.40;44.00;;;;;;8358474;27;20024;-58
2024/03/28 10:24:01;;;;;;;;;;;19.50;44.00;;;;;;8358201;28;19953;-58
2024/03/28 10:28:02;;;;;;;;;;;19.50;44.00;;;;;;8358119;28;19909;-59
2024/03/28 10:32:07;;;;;;;;;;;19.50;44.00;;;;;;8358363;28;19909;-58
2024/03/28 10:36:07;;;;;;;;;;;19.50;44.00;;;;;;8358116;28;19970;-57
2024/03/28 10:40:08;;;;;;;;;;;19.50;44.00;;;;;;8357958;28;19969;-58
2024/03/28 10:44:09;;;;;;;;;;;19.50;44.00;;;;;;8357455;27;19943;-57
2024/03/28 10:48:14;;;;;;;;;;;19.40;43.90;;;;;;8357885;28;19913;-58
2024/03/28 10:52:20;;;;;;;;;;;19.50;43.90;;;;;;8357602;28;19909;-57
2024/03/28 10:56:22;;;;;;;;;;;19.50;43.90;;;;;;8357668;28;19919;-59
2024/03/28 11:00:23;;;;;;;;;;;19.50;43.90;;;;;;8339530;28;20473;-58
2024/03/28 11:04:24;;;;;;;;;;;19.40;43.90;;;;;;8357217;28;20301;-58
2024/03/28 11:08:27;;;;;;;;;;;19.50;44.00;;;;;;8357222;28;20011;-58
2024/03/28 11:12:27;;;;;;;;;;;19.50;44.00;;;;;;8357084;28;20385;-58
2024/03/28 11:16:28;;;;;;;;;;;19.40;44.00;;;;;;8357011;28;20274;-58
2024/03/28 11:20:29;;;;;;;;;;;19.50;44.20;;;;;;8355767;28;20301;-58
2024/03/28 11:24:30;;;;;;;;;;;19.40;44.00;;;;;;8356894;28;19963;-58
2024/03/28 11:28:30;;;;;;;;;;;19.40;44.00;;;;;;8339114;28;19931;-58
2024/03/28 11:32:31;;;;;;;;;;;19.40;44.00;;;;;;8356725;28;19919;-58
2024/03/28 11:36:32;;;;;;;;;;;19.40;43.90;;;;;;8356560;28;19920;-59
2024/03/28 11:40:34;;;;;;;;;;;19.40;44.00;;;;;;8356555;28;19916;-58
2024/03/28 11:44:35;;;;;;;;;;;19.40;43.90;;;;;;8356175;28;19923;-59
2024/03/28 11:48:36;;;;;;;;;;;19.50;44.00;;;;;;8356141;28;20393;-59
2024/03/28 11:52:39;;;;;;;;;;;19.40;44.00;;;;;;8338572;28;19923;-57
2024/03/28 11:56:43;;;;;;;;;;;19.40;44.00;;;;;;8356125;28;19985;-58
2024/03/28 12:00:44;;;;;;;;;;;19.40;44.00;;;;;;8356117;28;19916;-57
2024/03/28 12:04:45;;;;;;;;;;;19.40;44.00;;;;;;8356068;28;19957;-55
2024/03/28 12:08:48;;;;;;;;;;;19.40;44.00;;;;;;8355833;28;19909;-56
2024/03/28 12:12:49;;;;;;;;;;;19.40;44.00;;;;;;8355682;28;19917;-56
2024/03/28 12:16:49;;;;;;;;;;;19.40;44.00;;;;;;8355849;28;19913;-56
2024/03/28 12:21:00;;;;;;;;;;;19.40;44.00;;;;;;8355360;28;20294;-56
2024/03/28 12:25:01;;;;;;;;;;;19.40;44.00;;;;;;8355492;28;19912;-55
2024/03/28 12:29:02;;;;;;;;;;;19.40;44.00;;;;;;8357740;28;19909;-56
2024/03/28 12:33:03;;;;;;;;;;;19.40;44.00;;;;;;8366442;27;19916;-55
2024/03/28 12:37:04;;;;;;;;;;;19.40;44.00;;;;;;8366546;28;19909;-56
2024/03/28 12:41:04;;;;;;;;;;;19.40;44.00;;;;;;8366081;28;20057;-56
2024/03/28 12:45:09;;;;;;;;;;;19.40;44.00;;;;;;8365877;27;19917;-56
2024/03/28 12:49:09;;;;;;;;;;;19.40;44.00;;;;;;8365927;27;19913;-56
2024/03/28 12:53:10;;;;;;;;;;;19.40;44.00;;;;;;8366850;28;20372;-56
2024/03/28 12:57:11;;;;;;;;;;;19.40;44.50;;;;;;8365977;27;19958;-55
2024/03/28 13:01:11;;;;;;;;;;;19.40;44.00;;;;;;8365544;28;19966;-56
2024/03/28 13:05:13;;;;;;;;;;;19.40;44.00;;;;;;8334602;27;20344;-56
2024/03/28 13:09:13;;;;;;;;;;;19.30;43.90;;;;;;8342084;27;20370;-56
2024/03/28 13:13:14;;;;;;;;;;;19.30;43.40;;;;;;8365156;27;20285;-56
2024/03/28 13:17:15;;;;;;;;;;;19.20;42.10;;;;;;8365257;27;19917;-56
2024/03/28 13:21:15;;;;;;;;;;;19.30;41.90;;;;;;8365584;28;19915;-56
2024/03/28 13:25:16;;;;;;;;;;;19.30;42.00;;;;;;8365123;28;20305;-55
2024/03/28 13:29:17;;;;;;;;;;;19.30;42.10;;;;;;8365043;28;20293;-56
2024/03/28 13:33:18;;;;;;;;;;;19.30;42.20;;;;;;8365370;27;19909;-56
2024/03/28 13:37:18;;;;;;;;;;;19.30;42.30;;;;;;8364884;27;20293;-56
2024/03/28 13:41:20;;;;;;;;;;;19.30;42.40;;;;;;8361573;28;19920;-56
2024/03/28 13:45:21;;;;;;;;;;;19.30;42.50;;;;;;8359355;28;19927;-56
2024/03/28 13:49:28;;;;;;;;;;;19.30;42.50;;;;;;8359335;28;19952;-56
2024/03/28 13:53:32;;;;;;;;;;;19.30;42.60;;;;;;8359376;28;19920;-56
2024/03/28 13:57:32;;;;;;;;;;;19.30;42.60;;;;;;8358900;28;19909;-56
2024/03/28 14:01:33;;;;;;;;;;;19.30;42.70;;;;;;8359276;28;19920;-55
2024/03/28 14:05:34;;;;;;;;;;;19.30;42.70;;;;;;8358802;28;19924;-55
2024/03/28 14:09:34;;;;;;;;;;;19.30;42.70;;;;;;8358637;28;19919;-56
2024/03/28 14:13:35;;;;;;;;;;;19.30;42.70;;;;;;8358969;28;19921;-56
2024/03/28 14:17:35;;;;;;;;;;;19.30;42.80;;;;;;8358432;27;20388;-56
2024/03/28 14:21:36;;;;;;;;;;;19.30;42.80;;;;;;8358487;28;20438;-56
2024/03/28 14:25:36;;;;;;;;;;;19.30;42.80;;;;;;8358510;28;19952;-56
2024/03/28 14:29:37;;;;;;;;;;;19.30;42.90;;;;;;8358078;28;19939;-58
2024/03/28 14:33:38;;;;;;;;;;;19.30;42.90;;;;;;8358333;28;19912;-58
2024/03/28 14:37:38;;;;;;;;;;;19.30;42.90;;;;;;8358123;28;19913;-55
2024/03/28 14:41:39;;;;;;;;;;;19.30;42.90;;;;;;8357929;28;19913;-58
2024/03/28 14:45:39;;;;;;;;;;;19.30;43.00;;;;;;8340128;28;19916;-58
2024/03/28 14:49:40;;;;;;;;;;;19.30;43.00;;;;;;8357763;28;19959;-58
2024/03/28 14:53:40;;;;;;;;;;;19.30;43.00;;;;;;8357215;28;20022;-58
2024/03/28 14:57:41;;;;;;;;;;;19.30;43.00;;;;;;8339755;28;19917;-57
2024/03/28 15:01:42;;;;;;;;;;;19.30;43.00;;;;;;8339748;28;20309;-58
2024/03/28 15:05:55;;;;;;;;;;;19.30;43.00;;;;;;8357112;28;19917;-58
2024/03/28 15:09:58;;;;;;;;;;;19.30;43.10;;;;;;8357463;28;19920;-57
2024/03/28 15:13:59;;;;;;;;;;;19.30;43.10;;;;;;8356854;28;20332;-59
2024/03/28 15:18:01;;;;;;;;;;;19.30;43.10;;;;;;8356744;27;19990;-57
2024/03/28 15:22:01;;;;;;;;;;;19.30;43.10;;;;;;8339318;28;19913;-59
2024/03/28 15:26:02;;;;;;;;;;;19.30;43.20;;;;;;8356540;28;20431;-58
2024/03/28 15:30:02;;;;;;;;;;;19.30;43.10;;;;;;8356655;28;19913;-58
2024/03/28 15:34:03;;;;;;;;;;;19.30;43.20;;;;;;8338952;28;19913;-58
2024/03/28 15:38:04;;;;;;;;;;;19.30;43.20;;;;;;8356558;28;19913;-57
2024/03/28 15:42:04;;;;;;;;;;;19.30;43.20;;;;;;8356356;27;19916;-56
2024/03/28 15:46:08;;;;;;;;;;;19.30;43.20;;;;;;8356048;28;19917;-57
2024/03/28 15:50:11;;;;;;;;;;;19.30;43.20;;;;;;8356243;28;19920;-56
2024/03/28 15:54:12;;;;;;;;;;;19.30;43.20;;;;;;8355968;28;19909;-56
2024/03/28 15:58:13;;;;;;;;;;;19.30;43.20;;;;;;8356058;28;19916;-56
2024/03/28 16:02:13;;;;;;;;;;;19.30;43.20;;;;;;8355876;28;19952;-57
2024/03/28 16:06:14;;;;;;;;;;;19.30;43.20;;;;;;8354836;28;19913;-56
2024/03/28 16:10:14;;;;;;;;;;;19.30;43.30;;;;;;8355909;28;19957;-56
2024/03/28 16:14:15;;;;;;;;;;;19.30;43.30;;;;;;8355822;27;20009;-56
2024/03/28 16:18:17;;;;;;;;;;;19.30;43.20;;;;;;8355231;27;20041;-57
2024/03/28 16:22:18;;;;;;;;;;;19.30;43.30;;;;;;8355484;28;19913;-56
2024/03/28 16:26:18;;;;;;;;;;;19.30;43.30;;;;;;8355134;28;20012;-57
2024/03/28 16:30:19;;;;;;;;;;;19.30;43.30;;;;;;8355115;28;19913;-56
2024/03/28 16:34:19;;;;;;;;;;;19.30;43.30;;;;;;8354980;28;20465;-55
2024/03/28 16:38:20;;;;;;;;;;;19.30;43.30;;;;;;8355026;28;19964;-55
2024/03/28 16:42:21;;;;;;;;;;;19.30;43.40;;;;;;8354990;28;20370;-57
2024/03/28 16:46:21;;;;;;;;;;;19.30;43.40;;;;;;8354787;28;19916;-59
2024/03/28 16:50:22;;;;;;;;;;;19.30;43.40;;;;;;8354690;28;20322;-58
2024/03/28 16:54:23;;;;;;;;;;;19.30;43.40;;;;;;8337055;28;19955;-58
2024/03/28 16:58:24;;;;;;;;;;;19.30;43.40;;;;;;8354654;28;19917;-59
2024/03/28 17:02:26;;;;;;;;;;;19.30;43.40;;;;;;8354477;28;19909;-58
2024/03/28 17:06:27;;;;;;;;;;;19.20;43.30;;;;;;8354620;28;19986;-58
2024/03/28 17:10:27;;;;;;;;;;;19.20;43.30;;;;;;8354447;28;19962;-58
2024/03/28 17:14:28;;;;;;;;;;;19.30;43.40;;;;;;8354182;27;20007;-56
2024/03/28 17:18:29;;;;;;;;;;;19.30;43.40;;;;;;8358933;27;19925;-58
2024/03/28 17:22:29;;;;;;;;;;;19.30;43.40;;;;;;8359944;28;19916;-58
2024/03/28 17:26:30;;;;;;;;;;;19.30;43.40;;;;;;8359765;28;19913;-58
2024/03/28 17:30:31;;;;;;;;;;;19.30;43.40;;;;;;8360164;28;19913;-58
2024/03/28 17:34:31;;;;;;;;;;;19.30;43.40;;;;;;8359730;28;20322;-58
2024/03/28 17:38:32;;;;;;;;;;;19.30;43.40;;;;;;8359516;28;19961;-59
2024/03/28 17:42:36;;;;;;;;;;;19.30;43.40;;;;;;8359374;27;19913;-59
2024/03/28 17:46:36;;;;;;;;;;;19.30;43.40;;;;;;8359370;28;20359;-59
2024/03/28 17:50:39;;;;;;;;;;;19.30;43.40;;;;;;8359191;28;20293;-58
2024/03/28 17:54:40;;;;;;;;;;;19.30;43.40;;;;;;8359052;28;19959;-57
2024/03/28 17:58:41;;;;;;;;;;;19.30;43.40;;;;;;8341331;28;20437;-58
2024/03/28 18:02:41;;;;;;;;;;;19.30;43.40;;;;;;8358876;28;20339;-57
2024/03/28 18:06:42;;;;;;;;;;;19.30;43.40;;;;;;8359375;28;19924;-58
2024/03/28 18:10:44;;;;;;;;;;;19.30;43.40;;;;;;8358671;28;20289;-59
2024/03/28 18:14:45;;;;;;;;;;;19.30;43.40;;;;;;8358791;28;19920;-57
2024/03/28 18:18:46;;;;;;;;;;;19.30;43.40;;;;;;8340578;28;20390;-58
2024/03/28 18:22:46;;;;;;;;;;;19.30;43.40;;;;;;8358380;28;19917;-59
2024/03/28 18:26:49;;;;;;;;;;;19.30;43.40;;;;;;8357674;28;20256;-57
2024/03/28 18:30:50;;;;;;;;;;;19.30;43.40;;;;;;8358251;28;19916;-58
2024/03/28 18:34:50;;;;;;;;;;;19.20;43.40;;;;;;8340364;28;20290;-58
2024/03/28 18:38:51;;;;;;;;;;;19.20;43.90;;;;;;8359183;28;19913;-58
2024/03/28 18:42:52;;;;;;;;;;;19.20;43.40;;;;;;8357730;28;19952;-59
2024/03/28 18:46:52;;;;;;;;;;;19.20;43.40;;;;;;8358046;28;19913;-58
2024/03/28 18:50:53;;;;;;;;;;;19.20;43.40;;;;;;8358053;28;20012;-58
2024/03/28 18:54:54;;;;;;;;;;;19.20;43.40;;;;;;8357711;28;19912;-58
2024/03/28 18:58:54;;;;;;;;;;;19.20;43.40;;;;;;8357691;28;19913;-58
2024/03/28 19:02:55;;;;;;;;;;;19.20;43.40;;;;;;8357861;28;19931;-58
2024/03/28 19:06:56;;;;;;;;;;;19.30;43.40;;;;;;8357702;28;19962;-57
2024/03/28 19:10:56;;;;;;;;;;;19.30;43.40;;;;;;8357386;28;19917;-58
2024/03/28 19:14:57;;;;;;;;;;;19.30;43.50;;;;;;8357221;28;20267;-58
2024/03/28 19:18:58;;;;;;;;;;;19.30;43.40;;;;;;8356889;28;20003;-57
2024/03/28 19:22:58;;;;;;;;;;;19.20;43.40;;;;;;8357098;28;19917;-58
2024/03/28 19:26:59;;;;;;;;;;;19.30;43.40;;;;;;8356745;28;20378;-59
2024/03/28 19:31:01;;;;;;;;;;;19.20;43.40;;;;;;8356904;28;19917;-58
2024/03/28 19:35:02;;;;;;;;;;;19.20;43.40;;;;;;8356904;28;19909;-58
2024/03/28 19:39:04;;;;;;;;;;;19.20;43.40;;;;;;8355203;28;19957;-59
2024/03/28 19:43:05;;;;;;;;;;;19.30;43.40;;;;;;8356342;28;19909;-57
2024/03/28 19:47:05;;;;;;;;;;;19.30;43.40;;;;;;8356526;28;19935;-58
2024/03/28 19:51:06;;;;;;;;;;;19.20;43.40;;;;;;8356220;28;20409;-58
2024/03/28 19:55:08;;;;;;;;;;;19.30;43.40;;;;;;8338413;28;19912;-58
2024/03/28 19:59:08;;;;;;;;;;;19.30;43.40;;;;;;8356015;28;19965;-56
2024/03/28 20:03:09;;;;;;;;;;;19.30;43.40;;;;;;8356084;28;20430;-58
2024/03/28 20:07:09;;;;;;;;;;;19.30;43.40;;;;;;8355866;28;19966;-59
2024/03/28 20:11:10;;;;;;;;;;;19.30;43.40;;;;;;8355803;28;19913;-59
2024/03/28 20:15:10;;;;;;;;;;;19.30;43.90;;;;;;8356156;28;20358;-58
2024/03/28 20:19:11;;;;;;;;;;;19.30;43.40;;;;;;8355625;27;20382;-56
2024/03/28 20:23:12;;;;;;;;;;;19.30;43.40;;;;;;8337741;28;19936;-56
2024/03/28 20:27:12;;;;;;;;;;;19.30;43.40;;;;;;8355286;28;20020;-56
2024/03/28 20:31:13;;;;;;;;;;;19.30;43.40;;;;;;8355505;28;20286;-55
2024/03/28 20:35:13;;;;;;;;;;;19.30;43.40;;;;;;8355362;28;19913;-56
2024/03/28 20:39:14;;;;;;;;;;;19.30;43.40;;;;;;8355404;28;19954;-55
2024/03/28 20:43:14;;;;;;;;;;;19.30;43.40;;;;;;8355053;27;19952;-56
2024/03/28 20:47:15;;;;;;;;;;;19.30;43.40;;;;;;8355010;28;20334;-56
2024/03/28 20:51:16;;;;;;;;;;;19.30;43.40;;;;;;8357973;28;19916;-56
2024/03/28 20:55:16;;;;;;;;;;;19.30;43.40;;;;;;8360883;28;20358;-57
2024/03/28 20:59:17;;;;;;;;;;;19.30;43.40;;;;;;8360554;28;19969;-56
2024/03/28 21:03:17;;;;;;;;;;;19.30;43.40;;;;;;8360646;28;19917;-57
2024/03/28 21:11:38;;;;;;;;;;;19.30;43.40;;;;;;8360517;27;20340;-56
2024/03/28 21:15:38;;;;;;;;;;;19.30;43.40;;;;;;8342169;28;19967;-56
2024/03/28 21:19:39;;;;;;;;;;;19.30;43.40;;;;;;8359713;27;19925;-56
2024/03/28 21:23:40;;;;;;;;;;;19.30;43.90;;;;;;8360035;28;19909;-56
2024/03/28 21:27:41;;;;;;;;;;;19.30;43.40;;;;;;8360037;28;19921;-58
2024/03/28 21:31:42;;;;;;;;;;;19.30;43.40;;;;;;8360260;28;20302;-58
2024/03/28 21:35:43;;;;;;;;;;;19.30;43.40;;;;;;8359666;28;19960;-59
2024/03/28 21:39:43;;;;;;;;;;;19.30;43.40;;;;;;8359449;28;19913;-59
2024/03/28 21:43:44;;;;;;;;;;;19.30;43.40;;;;;;8359284;28;19913;-59
2024/03/28 21:47:48;;;;;;;;;;;19.30;43.40;;;;;;8359295;28;20362;-58
2024/03/28 21:51:49;;;;;;;;;;;19.30;43.40;;;;;;8359192;28;19909;-57
2024/03/28 21:55:59;;;;;;;;;;;19.30;43.40;;;;;;8359378;28;20401;-57
2024/03/28 22:00:00;;;;;;;;;;;19.30;43.40;;;;;;8359099;28;19909;-58
2024/03/28 22:04:01;;;;;;;;;;;19.30;43.40;;;;;;8357785;28;19954;-59
2024/03/28 22:08:01;;;;;;;;;;;19.30;43.40;;;;;;8358874;28;20377;-59
2024/03/28 22:12:02;;;;;;;;;;;19.30;43.40;;;;;;8358609;28;20012;-58
2024/03/28 22:16:04;;;;;;;;;;;19.30;43.40;;;;;;8340957;28;19913;-59
2024/03/28 22:20:05;;;;;;;;;;;19.30;43.40;;;;;;8358383;28;19917;-59
2024/03/28 22:24:07;;;;;;;;;;;19.30;43.40;;;;;;8358393;28;20008;-57
2024/03/28 22:28:08;;;;;;;;;;;19.20;43.40;;;;;;8358320;28;19925;-58
2024/03/28 22:32:08;;;;;;;;;;;19.20;43.40;;;;;;8358479;28;19919;-59
2024/03/28 22:36:09;;;;;;;;;;;19.30;43.50;;;;;;8358092;28;19920;-57
2024/03/28 22:40:10;;;;;;;;;;;19.20;43.40;;;;;;8358156;28;19909;-56
2024/03/28 22:44:10;;;;;;;;;;;19.20;43.40;;;;;;8357775;28;20482;-56
2024/03/28 22:48:11;;;;;;;;;;;19.20;43.40;;;;;;8357624;28;20005;-56
2024/03/28 22:52:12;;;;;;;;;;;19.20;43.50;;;;;;8357857;28;19916;-55
2024/03/28 22:56:12;;;;;;;;;;;19.20;43.50;;;;;;8357606;28;20004;-57
2024/03/28 23:00:13;;;;;;;;;;;19.20;43.50;;;;;;8357460;28;19936;-56
2024/03/28 23:04:14;;;;;;;;;;;19.20;43.50;;;;;;8357420;28;19913;-56
2024/03/28 23:08:14;;;;;;;;;;;19.20;43.60;;;;;;8357248;28;19921;-56
2024/03/28 23:12:15;;;;;;;;;;;19.20;43.60;;;;;;8357185;27;19920;-55
2024/03/28 23:16:15;;;;;;;;;;;19.20;43.50;;;;;;8357095;28;19920;-56
2024/03/28 23:20:16;;;;;;;;;;;19.10;43.50;;;;;;8356781;28;19921;-56
2024/03/28 23:24:16;;;;;;;;;;;19.20;43.60;;;;;;8357002;28;20079;-55
2024/03/28 23:28:17;;;;;;;;;;;19.20;43.60;;;;;;8356597;28;19925;-56
2024/03/28 23:32:18;;;;;;;;;;;19.20;43.60;;;;;;8356620;28;19969;-55